Time;durP1;ratioP1;P1;durP2;ratioP2;P2;SDS_P1;SDS_P2;PMS_P1;PMS_P2;Temp;Humidity;BMP_temperature;BMP_pressure;BME280_temperature;BME280_humidity;BME280_pressure;Samples;Min_cycle;Max_cycle;Signal;HPM_P1;HPM_P2
2021/05/29 00:00:37;;;;;;;5.67;4.90;;;;;;;10.64;74.51;98985.33;261057;1100;22771;-72
2021/05/29 00:06:54;;;;;;;8.15;5.00;;;;;;;10.59;74.65;98976.25;261103;1104;22763;-71
2021/05/29 00:13:00;;;;;;;6.20;4.93;;;;;;;10.59;74.79;98980.80;260996;1098;25954;-71
2021/05/29 00:19:19;;;;;;;;;;;;;;;;;;;;;
2021/05/29 00:25:43;;;;;;;6.45;5.25;;;;;;;10.59;75.39;98978.94;261234;1100;23706;-71
2021/05/29 00:32:14;;;;;;;6.07;5.17;;;;;;;10.54;75.14;98978.98;261205;1099;22763;-71
2021/05/29 00:38:10;;;;;;;8.67;5.40;;;;;;;10.53;75.39;98981.94;261034;1104;24012;-72
2021/05/29 00:43:30;;;;;;;6.77;5.70;;;;;;;10.53;75.55;98981.94;261011;1104;24331;-73
2021/05/29 00:49:15;;;;;;;7.60;6.07;;;;;;;10.58;75.88;98981.90;261098;1100;23205;-72
2021/05/29 00:55:42;;;;;;;;;;;;;;;;;;;;;
2021/05/29 01:01:13;;;;;;;9.10;6.93;;;;;;;10.65;76.22;98978.86;261085;1099;28487;-72
2021/05/29 01:06:49;;;;;;;7.77;6.70;;;;;;;10.64;76.17;98977.28;261148;1104;22838;-72
2021/05/29 01:13:27;;;;;;;;;;;;;;;;;;;;;
2021/05/29 01:20:05;;;;;;;9.67;6.27;;;;;;;10.63;76.41;98983.72;261202;1104;24324;-73
2021/05/29 01:26:41;;;;;;;9.53;7.70;;;;;;;10.61;76.50;98981.33;261197;1104;22777;-72
2021/05/29 01:32:33;;;;;;;8.35;6.85;;;;;;;10.60;76.41;98977.05;261156;1104;22740;-71
2021/05/29 01:51:04;;;;;;;;;;;;;;;;;;;;;
2021/05/29 01:57:56;;;;;;;;;;;;;;;;;;;;;
2021/05/29 02:04:09;;;;;;;8.70;7.77;;;;;;;10.51;77.12;98970.72;261144;1104;23077;-73
2021/05/29 02:10:24;;;;;;;9.85;8.15;;;;;;;10.52;77.43;98969.62;260902;1104;22754;-73
2021/05/29 02:16:43;;;;;;;11.00;7.73;;;;;;;10.55;77.40;98964.51;261000;1104;22884;-72
2021/05/29 02:23:18;;;;;;;8.75;7.73;;;;;;;10.53;77.30;98965.88;260741;1100;23592;-72
2021/05/29 02:29:37;;;;;;;8.77;7.87;;;;;;;10.51;77.54;98962.69;260945;1100;22879;-72
2021/05/29 02:42:40;;;;;;;8.37;7.20;;;;;;;10.38;77.84;98975.66;260954;1100;22748;-73
2021/05/29 02:49:11;;;;;;;;;;;;;;;;;;;;;
2021/05/29 02:56:06;;;;;;;8.03;7.20;;;;;;;10.27;78.39;98977.59;261024;1099;22754;-72
2021/05/29 03:02:19;;;;;;;6.90;6.20;;;;;;;10.23;78.69;98986.47;260985;1104;22747;-72
2021/05/29 03:09:12;;;;;;;;;;;;;;;;;;;;;
2021/05/29 03:15:24;;;;;;;;;;;;;;;;;;;;;
2021/05/29 03:22:17;;;;;;;7.40;6.70;;;;;;;10.15;78.91;98995.09;261126;1100;24276;-72
2021/05/29 03:29:10;;;;;;;;;;;;;;;;;;;;;
2021/05/29 03:35:42;;;;;;;;;;;;;;;;;;;;;
2021/05/29 03:42:06;;;;;;;6.30;5.70;;;;;;;10.11;79.15;99008.23;260994;1100;22829;-72
2021/05/29 03:48:52;;;;;;;4.70;4.30;;;;;;;10.06;78.55;99005.61;261164;1100;26232;-72
2021/05/29 03:55:41;;;;;;;3.30;3.00;;;;;;;10.01;78.41;98998.39;260632;1100;27274;-72
2021/05/29 04:01:25;;;;;;;3.33;2.30;;;;;;;9.88;77.98;99004.39;260943;1104;22972;-72
2021/05/29 04:07:51;;;;;;;2.63;2.43;;;;;;;9.72;78.17;99020.54;260912;1104;22767;-72
2021/05/29 04:14:08;;;;;;;3.53;2.60;;;;;;;9.58;78.36;99028.37;260907;1104;22771;-72
2021/05/29 04:19:48;;;;;;;2.97;2.67;;;;;;;9.58;78.73;99030.23;260960;1100;22743;-71
2021/05/29 04:25:11;;;;;;;2.67;2.30;;;;;;;9.64;78.81;99033.67;261001;1104;22754;-71
2021/05/29 04:30:31;;;;;;;3.60;2.45;;;;;;;9.71;79.08;99026.95;260968;1099;22754;-72
2021/05/29 04:35:58;;;;;;;3.07;2.63;;;;;;;9.78;78.99;99033.87;260945;1104;22837;-72
2021/05/29 04:41:31;;;;;;;3.50;2.30;;;;;;;9.79;78.90;99041.61;260922;1104;22835;-74
2021/05/29 04:47:05;;;;;;;2.37;2.17;;;;;;;9.80;78.83;99026.38;260907;1100;22935;-71
2021/05/29 04:52:09;;;;;;;5.80;3.40;;;;;;;9.81;79.07;99038.66;260984;1100;22756;-71
2021/05/29 04:57:23;;;;;;;3.63;2.80;;;;;;;9.87;79.01;99049.06;261050;1104;22761;-72
2021/05/29 05:02:49;;;;;;;4.93;2.80;;;;;;;9.98;79.27;99049.02;260957;1098;22813;-71
2021/05/29 05:08:24;;;;;;;;;;;;;;;10.15;79.12;99041.39;261055;1104;22816;-70
2021/05/29 05:13:50;;;;;;;2.83;2.20;;;;;;;10.21;78.77;99044.83;261022;1104;21467;-71
2021/05/29 05:19:11;;;;;;;5.20;2.30;;;;;;;10.22;79.25;99047.23;260980;1100;22760;-71
2021/05/29 05:24:22;;;;;;;6.27;3.10;;;;;;;10.21;79.30;99056.36;261062;1104;22913;-71
2021/05/29 05:29:32;;;;;;;3.60;3.20;;;;;;;10.26;79.69;99050.16;260991;1104;22809;-72
2021/05/29 05:34:36;;;;;;;6.03;5.00;;;;;;;10.37;79.93;99054.39;260979;1104;24286;-72
2021/05/29 05:39:59;;;;;;;6.73;5.03;;;;;;;10.63;80.22;99046.13;261116;1104;24276;-71
2021/05/29 05:45:38;;;;;;;6.25;5.45;;;;;;;11.17;80.88;99046.15;261528;1099;22732;-71
2021/05/29 05:50:58;;;;;;;8.20;6.73;;;;;;;11.89;81.21;99039.86;261332;1099;22768;-71
2021/05/29 05:56:37;;;;;;;7.20;5.80;;;;;;;12.64;79.79;99044.36;261304;1104;22780;-71
2021/05/29 06:01:45;;;;;;;7.50;6.70;;;;;;;12.87;78.54;99044.53;261235;1100;22747;-70
2021/05/29 06:06:52;;;;;;;7.07;6.37;;;;;;;12.78;77.27;99048.98;261095;1099;22764;-72
2021/05/29 06:12:27;;;;;;;6.20;5.60;;;;;;;12.44;76.49;99052.78;261142;1099;27189;-71
2021/05/29 06:23:07;;;;;;;5.50;5.00;;;;;;;12.13;76.46;99067.48;261045;1104;22740;-71
2021/05/29 06:28:16;;;;;;;5.80;5.20;;;;;;;12.07;76.19;99065.94;261096;1104;22926;-71
2021/05/29 06:33:23;;;;;;;6.55;4.80;;;;;;;12.11;76.18;99063.48;261150;1104;22901;-70
2021/05/29 06:38:53;;;;;;;6.35;4.70;;;;;;;12.30;76.45;99069.63;261583;1104;22763;-70
2021/05/29 06:44:23;;;;;;;5.75;5.25;;;;;;;12.32;75.80;99062.09;261653;1104;23373;-70
2021/05/29 06:49:41;;;;;;;6.43;5.50;;;;;;;12.20;75.49;99069.80;260259;1099;22800;-70
2021/05/29 07:02:11;;;;;;;8.25;6.45;;;;;;;12.14;75.37;99073.63;261368;1104;22803;-72
2021/05/29 07:07:18;;;;;;;6.37;5.70;;;;;;;12.19;75.27;99072.78;261584;1104;22781;-70
2021/05/29 07:12:25;;;;;;;4.07;3.67;;;;;;;12.71;75.29;99067.39;261436;1100;23408;-71
2021/05/29 07:24:12;;;;;;;6.15;5.55;;;;;;;13.60;74.10;99068.16;261497;1104;22767;-72
2021/05/29 07:29:32;;;;;;;5.50;4.90;;;;;;;13.71;73.06;99064.17;261402;1099;26242;-70
2021/05/29 07:35:42;;;;;;;;;;;;;;;;;;;;;
2021/05/29 07:42:06;;;;;;;;;;;;;;;;;;;;;
2021/05/29 07:48:37;;;;;;;2.90;2.65;;;;;;;15.21;68.85;99059.49;261228;1104;22764;-70
2021/05/29 07:54:16;;;;;;;3.05;2.75;;;;;;;15.06;66.87;99058.00;261349;1104;22752;-70
2021/05/29 08:00:57;;;;;;;3.00;2.70;;;;;;;15.07;66.88;99058.81;261382;1104;22779;-71
2021/05/29 08:07:07;;;;;;;3.30;2.95;;;;;;;15.09;65.91;99048.48;261396;1104;22754;-70
2021/05/29 08:20:40;;;;;;;5.25;4.70;;;;;;;14.84;66.83;99050.78;261359;1104;22779;-70
2021/05/29 08:33:43;;;;;;;5.15;4.65;;;;;;;15.36;64.72;99054.77;260638;1107;22798;-71
2021/05/29 08:39:42;;;;;;;5.40;4.90;;;;;;;15.15;63.56;99054.54;261165;1099;26216;-71
2021/05/29 08:45:51;;;;;;;6.85;5.60;;;;;;;14.51;65.03;99051.02;261217;1104;22770;-71
2021/05/29 08:51:48;;;;;;;6.70;6.00;;;;;;;13.89;66.16;99040.88;261184;1100;22755;-70
2021/05/29 09:05:03;;;;;;;5.60;5.03;;;;;;;14.46;67.42;99034.18;261701;1099;26640;-70
2021/05/29 09:10:55;;;;;;;3.67;3.30;;;;;;;15.16;64.58;99027.24;261505;1104;22851;-70
2021/05/29 09:16:54;;;;;;;5.10;3.33;;;;;;;15.52;62.57;99037.03;260057;1104;22816;-71
2021/05/29 09:23:14;;;;;;;3.53;3.23;;;;;;;15.03;61.16;99049.74;261451;1100;22740;-70
2021/05/29 09:28:56;;;;;;;2.50;2.30;;;;;;;14.20;61.44;99057.15;261675;1104;22808;-71
2021/05/29 09:34:48;;;;;;;2.00;1.80;;;;;;;13.59;61.98;99066.58;261408;1100;22806;-70
2021/05/29 09:40:22;;;;;;;3.17;1.43;;;;;;;12.94;61.38;99061.06;261825;1104;22792;-70
2021/05/29 09:46:37;;;;;;;;;;;;;;;;;;;;;
2021/05/29 09:53:33;;;;;;;2.63;1.30;;;;;;;12.63;62.65;99032.03;261416;1100;22845;-71
2021/05/29 09:59:42;;;;;;;2.40;1.90;;;;;;;13.03;62.63;99039.66;261541;1097;27115;-71
2021/05/29 10:06:05;;;;;;;3.07;2.20;;;;;;;13.41;63.02;99036.78;261464;1100;22856;-70
2021/05/29 10:12:09;;;;;;;;;;;;;;;;;;;;;
2021/05/29 10:18:25;;;;;;;2.20;2.00;;;;;;;13.30;62.26;99038.05;261186;1104;22771;-71
2021/05/29 10:30:46;;;;;;;3.70;2.20;;;;;;;14.58;63.54;99012.85;261640;1099;27160;-71
2021/05/29 10:37:26;;;;;;;1.60;1.50;;;;;;;15.06;62.04;99022.14;261795;1104;24317;-71
2021/05/29 10:43:20;;;;;;;1.30;1.20;;;;;;;15.71;59.78;99023.25;261283;1099;22810;-70
2021/05/29 10:49:04;;;;;;;1.90;1.15;;;;;;;16.16;58.57;99024.88;261684;1104;22926;-70
2021/05/29 10:54:33;;;;;;;1.15;1.05;;;;;;;16.67;56.82;99000.75;261853;1104;22831;-71
2021/05/29 10:59:41;;;;;;;1.70;1.35;;;;;;;16.60;55.54;99014.77;261910;1104;22849;-71
2021/05/29 11:05:30;;;;;;;2.05;1.55;;;;;;;16.01;55.00;99019.95;262416;1104;22923;-69
2021/05/29 11:10:45;;;;;;;2.00;1.43;;;;;;;15.53;55.99;99011.63;262112;1100;22768;-71
2021/05/29 11:16:23;;;;;;;1.40;1.30;;;;;;;15.43;56.43;99011.94;261438;1104;24116;-71
2021/05/29 11:22:07;;;;;;;2.30;1.67;;;;;;;15.51;56.38;99000.34;261553;1099;27671;-71
2021/05/29 11:27:32;;;;;;;2.23;1.50;;;;;;;15.47;56.71;99012.88;261701;1100;22747;-71
2021/05/29 11:33:41;;;;;;;;;;;;;;;;;;;;;
2021/05/29 11:39:33;;;;;;;1.55;1.00;;;;;;;13.86;60.06;99001.91;261097;1104;22781;-72
2021/05/29 11:45:25;;;;;;;1.60;0.85;;;;;;;13.71;59.89;98996.88;261178;1104;22759;-71
2021/05/29 11:50:52;;;;;;;;;;;;;;;;;;;;;
2021/05/29 11:57:13;;;;;;;0.50;0.50;;;;;;;14.43;57.45;98984.38;261070;1104;22767;-71
2021/05/29 12:03:18;;;;;;;0.60;0.60;;;;;;;15.11;56.97;98978.84;261083;1104;22748;-70
2021/05/29 12:08:24;;;;;;;0.60;0.60;;;;;;;15.57;56.01;98982.89;261130;1104;24188;-70
2021/05/29 12:13:39;;;;;;;2.65;1.20;;;;;;;15.91;55.84;98991.35;261106;1100;24496;-71
2021/05/29 12:19:50;;;;;;;;;;;;;;;;;;;;;
2021/05/29 12:26:19;;;;;;;;;;;;;;;;;;;;;
2021/05/29 12:32:27;;;;;;;1.50;1.33;;;;;;;15.40;51.54;98997.16;260999;1100;22797;-72
2021/05/29 12:39:01;;;;;;;0.67;0.67;;;;;;;15.62;51.72;98992.73;261075;1104;24178;-71
2021/05/29 12:44:58;;;;;;;1.70;1.00;;;;;;;15.97;51.96;98989.28;260952;1104;22945;-71
2021/05/29 12:51:19;;;;;;;1.60;1.40;;;;;;;16.19;52.26;98989.09;260938;1104;22754;-71
2021/05/29 12:56:13;;;;;;;1.05;0.95;;;;;;;16.35;51.88;98991.30;261142;1099;27469;-71
2021/05/29 13:07:40;;;;;;;0.90;0.90;;;;;;;15.01;51.63;99011.48;261262;1100;22773;-70
2021/05/29 13:13:14;;;;;;;1.60;0.90;;;;;;;14.46;52.68;99032.27;261064;1104;22933;-71
2021/05/29 13:18:43;;;;;;;1.90;1.00;;;;;;;14.20;54.02;99024.03;261070;1104;22753;-70
2021/05/29 13:23:55;;;;;;;1.30;1.20;;;;;;;14.22;54.32;98999.48;261167;1104;22825;-71
2021/05/29 13:29:24;;;;;;;;;;;;;;;14.13;54.68;99027.15;261114;1104;22946;-70
2021/05/29 13:34:41;;;;;;;1.23;1.13;;;;;;;14.18;55.32;99018.92;261056;1104;21516;-71
2021/05/29 13:39:47;;;;;;;;;;;;;;;14.33;53.58;99025.07;261106;1104;22754;-70
2021/05/29 13:45:32;;;;;;;;;;;;;;;;;;;;;
2021/05/29 13:50:50;;;;;;;0.97;0.57;;;;;;;14.79;53.51;99010.45;261128;1104;22942;-70
2021/05/29 13:56:06;;;;;;;1.00;0.80;;;;;;;14.95;53.91;99008.13;261055;1100;22770;-72
2021/05/29 14:01:24;;;;;;;1.80;0.90;;;;;;;15.17;54.33;98995.67;261039;1104;24421;-72
2021/05/29 14:06:44;;;;;;;1.30;1.20;;;;;;;15.42;54.60;98993.33;261105;1104;22844;-71
2021/05/29 14:12:18;;;;;;;1.53;1.23;;;;;;;15.68;52.64;98987.97;261061;1104;22854;-70
2021/05/29 14:17:48;;;;;;;1.65;0.90;;;;;;;15.66;51.89;98990.98;261271;1104;22926;-71
2021/05/29 14:23:20;;;;;;;0.85;0.80;;;;;;;15.64;50.92;99004.03;261058;1104;22898;-71
2021/05/29 14:28:28;;;;;;;2.10;1.00;;;;;;;15.63;50.80;99012.45;261090;1104;22818;-73
2021/05/29 14:33:43;;;;;;;1.23;0.90;;;;;;;15.84;51.18;99012.66;261130;1104;22809;-72
2021/05/29 14:39:15;;;;;;;0.50;0.50;;;;;;;16.07;50.31;99005.16;261095;1104;22774;-71
2021/05/29 14:44:44;;;;;;;1.37;0.90;;;;;;;16.13;49.92;99006.61;261127;1104;22755;-71
2021/05/29 14:50:13;;;;;;;1.23;1.13;;;;;;;16.23;50.38;99005.48;261008;1099;23010;-71
2021/05/29 14:55:24;;;;;;;1.10;0.90;;;;;;;16.27;49.62;98998.32;261084;1099;22889;-72
2021/05/29 15:00:54;;;;;;;1.10;0.80;;;;;;;16.05;49.32;99004.70;261112;1100;22954;-71
2021/05/29 15:19:44;;;;;;;;;;;;;;;14.92;51.75;99008.75;261107;1104;23514;-71
2021/05/29 15:25:24;;;;;;;1.95;1.50;;;;;;;14.92;52.08;99005.27;261086;1104;21559;-71
2021/05/29 15:31:22;;;;;;;1.48;1.38;;;;;;;14.93;52.22;99013.05;261012;1104;22771;-72
2021/05/29 15:36:44;;;;;;;1.95;1.50;;;;;;;14.86;52.87;99013.49;261154;1104;22774;-72
2021/05/29 15:42:36;;;;;;;;;;;;;;;14.62;53.29;99021.10;261083;1104;22984;-71
2021/05/29 15:48:42;;;;;;;;;;;;;;;;;;;;;
2021/05/29 15:54:35;;;;;;;2.30;1.80;;;;;;;14.29;55.18;99024.09;261102;1104;24361;-72
2021/05/29 16:06:44;;;;;;;2.03;1.70;;;;;;;14.08;56.88;99031.86;261273;1104;22785;-71
2021/05/29 16:12:39;;;;;;;1.95;1.45;;;;;;;14.15;57.23;99035.70;261112;1104;22784;-70
2021/05/29 16:18:17;;;;;;;2.63;1.60;;;;;;;14.07;56.39;99046.42;261061;1100;22758;-71
2021/05/29 16:24:25;;;;;;;1.58;0.90;;;;;;;13.80;54.88;99050.79;261169;1099;22824;-70
2021/05/29 16:29:52;;;;;;;1.07;0.57;;;;;;;13.56;54.16;99046.45;261171;1099;25736;-71
2021/05/29 16:36:27;;;;;;;0.97;0.90;;;;;;;13.16;55.08;99038.88;260966;1100;26321;-70
2021/05/29 16:42:12;;;;;;;;;;;;;;;;;;;;;
2021/05/29 16:47:54;;;;;;;1.30;1.17;;;;;;;12.58;56.42;99055.52;261201;1104;22788;-71
2021/05/29 16:53:47;;;;;;;1.97;1.83;;;;;;;12.32;57.20;99053.22;261145;1105;22784;-71
2021/05/29 16:59:55;;;;;;;;;;;;;;;;;;;;;
2021/05/29 17:05:33;;;;;;;4.35;3.70;;;;;;;11.77;59.85;99067.94;261159;1099;22835;-71
2021/05/29 17:11:06;;;;;;;2.27;1.20;;;;;;;11.59;60.74;99082.13;261104;1100;22792;-71
2021/05/29 17:17:43;;;;;;;3.40;2.30;;;;;;;11.18;63.24;99086.08;261110;1098;26121;-71
2021/05/29 17:23:37;;;;;;;;;;;;;;;;;;;;;
2021/05/29 17:28:54;;;;;;;3.73;2.10;;;;;;;10.42;65.77;99059.71;261052;1099;27346;-71
2021/05/29 17:34:11;;;;;;;2.17;1.40;;;;;;;10.26;66.54;99060.88;261032;1099;22829;-71
2021/05/29 17:39:48;;;;;;;4.07;2.83;;;;;;;10.05;67.33;99047.62;261136;1098;26331;-71
2021/05/29 17:45:08;;;;;;;5.60;3.47;;;;;;;10.01;68.23;99030.52;261276;1104;22913;-71
2021/05/29 17:50:58;;;;;;;3.90;3.00;;;;;;;9.99;69.63;99018.48;261195;1099;26325;-71
2021/05/29 17:56:14;;;;;;;7.93;4.27;;;;;;;10.06;70.51;99009.08;260182;1100;22816;-71
2021/05/29 18:01:36;;;;;;;2.43;1.90;;;;;;;10.13;70.64;99005.27;260176;1100;22758;-72
2021/05/29 18:06:53;;;;;;;3.17;2.20;;;;;;;10.09;71.49;99008.52;260178;1107;24174;-71
2021/05/29 18:12:26;;;;;;;;;;;;;;;;;;;;;
2021/05/29 18:18:07;;;;;;;;;;;;;;;;;;;;;
2021/05/29 18:23:41;;;;;;;4.27;3.13;;;;;;;10.03;71.68;99039.08;261119;1104;22851;-71
2021/05/29 18:29:24;;;;;;;10.30;5.70;;;;;;;10.08;71.63;99038.23;261148;1104;22750;-72
2021/05/29 18:35:02;;;;;;;9.13;5.43;;;;;;;10.13;71.58;99045.42;261133;1104;23074;-72
2021/05/29 18:41:12;;;;;;;5.63;3.80;;;;;;;10.12;71.40;99038.49;261083;1104;23314;-71
2021/05/29 18:47:16;;;;;;;;;;;;;;;;;;;;;
2021/05/29 18:52:38;;;;;;;9.85;5.60;;;;;;;10.13;71.64;99046.23;261080;1104;22775;-71
2021/05/29 18:58:12;;;;;;;6.13;4.20;;;;;;;10.19;71.60;99049.68;261055;1104;22759;-71
2021/05/29 19:04:12;;;;;;;5.08;3.73;;;;;;;10.24;72.19;99061.16;260998;1100;22773;-71
2021/05/29 19:09:20;;;;;;;5.90;3.50;;;;;;;10.23;71.89;99083.64;260690;1098;26092;-71
2021/05/29 19:14:24;;;;;;;7.10;4.67;;;;;;;10.17;71.85;99095.47;261118;1104;24182;-74
2021/05/29 19:19:27;;;;;;;4.33;3.20;;;;;;;10.08;72.23;99097.91;260834;1104;24205;-71
2021/05/29 19:24:33;;;;;;;3.57;2.97;;;;;;;9.99;72.17;99102.27;261208;1100;22757;-71
2021/05/29 19:29:37;;;;;;;4.13;3.40;;;;;;;9.86;72.70;99097.50;261157;1104;22760;-70
2021/05/29 19:40:21;;;;;;;4.10;2.80;;;;;;;9.81;73.06;99087.64;261065;1104;22832;-72
2021/05/29 20:13:50;;;;;;;7.85;5.10;;;;;;;9.81;74.90;99087.64;260262;1102;26318;-72
2021/05/29 20:30:19;;;;;;;5.83;4.23;;;;;;;9.74;75.58;99084.47;261082;1104;23483;-71
2021/05/29 20:35:38;;;;;;;5.40;3.63;;;;;;;9.71;75.71;99093.02;261113;1104;22768;-72
2021/05/29 20:40:42;;;;;;;5.50;4.50;;;;;;;9.68;76.37;99088.22;261105;1104;22851;-71
2021/05/29 20:45:54;;;;;;;6.17;4.83;;;;;;;9.70;76.35;99086.88;261081;1098;26861;-71
2021/05/29 20:51:12;;;;;;;7.43;5.80;;;;;;;9.70;76.77;99084.20;261158;1099;26238;-70
2021/05/29 20:56:33;;;;;;;6.70;5.45;;;;;;;9.71;76.64;99090.34;261146;1099;22842;-71
2021/05/29 21:01:41;;;;;;;4.50;4.10;;;;;;;9.73;76.78;99080.97;261034;1099;25839;-71
2021/05/29 21:06:53;;;;;;;4.40;3.80;;;;;;;9.68;76.96;99075.66;261092;1100;22930;-71
2021/05/29 21:12:10;;;;;;;4.93;3.63;;;;;;;9.62;76.90;99073.28;261093;1100;22791;-72
2021/05/29 21:22:34;;;;;;;8.87;4.97;;;;;;;9.45;77.17;99084.31;261074;1104;21465;-71
2021/05/29 21:28:29;;;;;;;;;;;;;;;;;;;;;
2021/05/29 21:34:13;;;;;;;5.43;4.30;;;;;;;9.30;77.93;99075.25;261187;1100;22809;-72
2021/05/29 21:39:24;;;;;;;5.93;4.17;;;;;;;9.25;78.21;99077.97;261139;1100;24003;-71
2021/05/29 21:44:57;;;;;;;5.00;4.13;;;;;;;9.23;78.29;99080.91;261118;1100;22796;-71
2021/05/29 21:50:42;;;;;;;6.70;5.10;;;;;;;9.19;78.68;99071.83;261195;1104;24436;-71
2021/05/29 21:55:57;;;;;;;6.70;5.33;;;;;;;9.19;78.75;99071.02;261284;1100;22754;-72
2021/05/29 22:01:33;;;;;;;7.47;4.97;;;;;;;9.25;78.82;99072.62;261243;1100;22930;-71
2021/05/29 22:06:42;;;;;;;7.70;5.40;;;;;;;9.28;78.83;99073.95;261090;1100;26988;-71
2021/05/29 22:13:30;;;;;;;9.67;5.53;;;;;;;9.34;79.13;99064.83;261110;1104;24046;-74
2021/05/29 22:18:19;;;;;;;7.40;5.40;;;;;;;9.44;79.26;99069.34;261018;1104;22791;-72
2021/05/29 22:35:07;;;;;;;10.55;6.90;;;;;;;9.58;79.37;99070.34;261304;1099;22894;-71
2021/05/29 22:40:49;;;;;;;11.93;7.17;;;;;;;9.62;79.21;99062.58;261207;1104;23131;-72
2021/05/29 22:46:05;;;;;;;10.47;7.60;;;;;;;9.67;79.40;99065.24;261185;1104;23021;-71
2021/05/29 22:51:35;;;;;;;7.60;6.13;;;;;;;9.65;79.29;99056.67;261086;1104;22813;-71
2021/05/29 22:56:54;;;;;;;7.93;6.57;;;;;;;9.59;79.14;99064.72;261007;1099;25857;-71
2021/05/29 23:02:07;;;;;;;11.38;7.35;;;;;;;9.62;79.41;99062.58;261097;1098;23531;-72
2021/05/29 23:07:18;;;;;;;12.27;7.30;;;;;;;9.64;79.74;99063.91;261022;1100;22774;-70
2021/05/29 23:12:46;;;;;;;10.23;6.60;;;;;;;9.69;79.89;99058.52;260959;1099;26267;-72
2021/05/29 23:18:47;;;;;;;8.70;6.77;;;;;;;9.76;80.03;99058.23;261095;1099;22883;-71
2021/05/29 23:31:59;;;;;;;10.40;7.95;;;;;;;9.86;79.90;99049.34;260985;1100;27029;-70
2021/05/29 23:37:41;;;;;;;8.43;6.27;;;;;;;9.89;80.31;99044.25;261000;1100;22760;-72
2021/05/29 23:43:03;;;;;;;8.97;6.73;;;;;;;9.96;80.19;99045.80;260958;1100;22794;-72
2021/05/29 23:48:34;;;;;;;9.90;6.73;;;;;;;9.97;80.04;99050.09;261037;1099;22807;-72
2021/05/29 23:53:54;;;;;;;10.23;7.10;;;;;;;9.94;79.89;99040.73;261049;1099;25957;-72
2021/05/29 23:59:14;;;;;;;7.67;6.27;;;;;;;9.88;80.18;99044.53;261056;1104;22849;-71
